sensor_id;sensor_type;location;lat;lon;timestamp;P1;durP1;ratioP1;P2;durP2;ratioP2
74908;SDS011;63468;52.058;4.824;2024-02-21T00:00:27;15.25;;;5.72;;
74908;SDS011;63468;52.058;4.824;2024-02-21T00:02:53;16.40;;;5.68;;
74908;SDS011;63468;52.058;4.824;2024-02-21T00:05:18;15.10;;;5.72;;
74908;SDS011;63468;52.058;4.824;2024-02-21T00:07:44;13.88;;;5.68;;
74908;SDS011;63468;52.058;4.824;2024-02-21T00:10:09;17.33;;;5.32;;
74908;SDS011;63468;52.058;4.824;2024-02-21T00:12:34;10.82;;;5.32;;
74908;SDS011;63468;52.058;4.824;2024-02-21T00:15:00;15.75;;;5.53;;
74908;SDS011;63468;52.058;4.824;2024-02-21T00:17:25;10.60;;;5.53;;
74908;SDS011;63468;52.058;4.824;2024-02-21T00:19:51;23.58;;;5.68;;
74908;SDS011;63468;52.058;4.824;2024-02-21T00:22:16;15.07;;;4.35;;
74908;SDS011;63468;52.058;4.824;2024-02-21T00:24:42;13.43;;;5.15;;
74908;SDS011;63468;52.058;4.824;2024-02-21T00:27:07;11.98;;;4.97;;
74908;SDS011;63468;52.058;4.824;2024-02-21T00:29:32;9.82;;;4.65;;
74908;SDS011;63468;52.058;4.824;2024-02-21T00:31:59;16.25;;;5.35;;
74908;SDS011;63468;52.058;4.824;2024-02-21T00:34:24;13.27;;;4.63;;
74908;SDS011;63468;52.058;4.824;2024-02-21T00:36:50;13.30;;;5.40;;
74908;SDS011;63468;52.058;4.824;2024-02-21T00:39:15;13.55;;;5.97;;
74908;SDS011;63468;52.058;4.824;2024-02-21T00:41:41;16.58;;;4.93;;
74908;SDS011;63468;52.058;4.824;2024-02-21T00:44:06;16.92;;;5.35;;
74908;SDS011;63468;52.058;4.824;2024-02-21T00:46:31;12.50;;;5.15;;
74908;SDS011;63468;52.058;4.824;2024-02-21T00:48:57;17.17;;;5.75;;
74908;SDS011;63468;52.058;4.824;2024-02-21T00:51:22;12.95;;;4.55;;
74908;SDS011;63468;52.058;4.824;2024-02-21T00:53:47;19.15;;;5.95;;
74908;SDS011;63468;52.058;4.824;2024-02-21T00:56:13;14.82;;;5.28;;
74908;SDS011;63468;52.058;4.824;2024-02-21T00:58:38;15.88;;;6.40;;
74908;SDS011;63468;52.058;4.824;2024-02-21T01:01:04;14.32;;;5.03;;
74908;SDS011;63468;52.058;4.824;2024-02-21T01:03:29;13.77;;;5.03;;
74908;SDS011;63468;52.058;4.824;2024-02-21T01:05:54;8.77;;;4.30;;
74908;SDS011;63468;52.058;4.824;2024-02-21T01:08:20;17.63;;;5.38;;
74908;SDS011;63468;52.058;4.824;2024-02-21T01:10:45;14.40;;;5.82;;
74908;SDS011;63468;52.058;4.824;2024-02-21T01:13:10;15.55;;;5.47;;
74908;SDS011;63468;52.058;4.824;2024-02-21T01:15:36;13.88;;;5.60;;
74908;SDS011;63468;52.058;4.824;2024-02-21T01:18:01;12.45;;;5.03;;
74908;SDS011;63468;52.058;4.824;2024-02-21T01:20:27;14.13;;;5.75;;
74908;SDS011;63468;52.058;4.824;2024-02-21T01:22:52;16.52;;;5.63;;
74908;SDS011;63468;52.058;4.824;2024-02-21T01:25:18;19.73;;;5.65;;
74908;SDS011;63468;52.058;4.824;2024-02-21T01:27:43;15.38;;;6.10;;
74908;SDS011;63468;52.058;4.824;2024-02-21T01:30:08;14.90;;;5.88;;
74908;SDS011;63468;52.058;4.824;2024-02-21T01:32:35;14.63;;;5.45;;
74908;SDS011;63468;52.058;4.824;2024-02-21T01:35:01;15.07;;;5.95;;
74908;SDS011;63468;52.058;4.824;2024-02-21T01:37:26;20.33;;;6.13;;
74908;SDS011;63468;52.058;4.824;2024-02-21T01:39:52;17.30;;;5.60;;
74908;SDS011;63468;52.058;4.824;2024-02-21T01:42:17;20.00;;;6.30;;
74908;SDS011;63468;52.058;4.824;2024-02-21T01:44:43;16.50;;;5.30;;
74908;SDS011;63468;52.058;4.824;2024-02-21T01:47:09;13.73;;;4.78;;
74908;SDS011;63468;52.058;4.824;2024-02-21T01:49:36;13.63;;;5.32;;
74908;SDS011;63468;52.058;4.824;2024-02-21T01:52:01;18.27;;;5.57;;
74908;SDS011;63468;52.058;4.824;2024-02-21T01:54:28;15.60;;;6.13;;
74908;SDS011;63468;52.058;4.824;2024-02-21T01:56:53;12.90;;;5.50;;
74908;SDS011;63468;52.058;4.824;2024-02-21T01:59:19;13.57;;;6.30;;
74908;SDS011;63468;52.058;4.824;2024-02-21T02:01:44;13.68;;;5.70;;
74908;SDS011;63468;52.058;4.824;2024-02-21T02:04:11;13.13;;;5.63;;
74908;SDS011;63468;52.058;4.824;2024-02-21T02:06:37;16.13;;;5.53;;
74908;SDS011;63468;52.058;4.824;2024-02-21T02:09:02;16.70;;;5.78;;
74908;SDS011;63468;52.058;4.824;2024-02-21T02:11:28;17.63;;;5.45;;
74908;SDS011;63468;52.058;4.824;2024-02-21T02:13:53;19.05;;;6.07;;
74908;SDS011;63468;52.058;4.824;2024-02-21T02:16:19;17.58;;;6.50;;
74908;SDS011;63468;52.058;4.824;2024-02-21T02:18:44;11.10;;;5.57;;
74908;SDS011;63468;52.058;4.824;2024-02-21T02:21:14;14.85;;;5.30;;
74908;SDS011;63468;52.058;4.824;2024-02-21T02:23:48;16.55;;;6.07;;
74908;SDS011;63468;52.058;4.824;2024-02-21T02:26:13;16.00;;;5.70;;
74908;SDS011;63468;52.058;4.824;2024-02-21T02:28:39;11.73;;;5.30;;
74908;SDS011;63468;52.058;4.824;2024-02-21T02:31:05;16.33;;;5.53;;
74908;SDS011;63468;52.058;4.824;2024-02-21T02:33:30;12.35;;;5.53;;
74908;SDS011;63468;52.058;4.824;2024-02-21T02:35:56;13.38;;;6.80;;
74908;SDS011;63468;52.058;4.824;2024-02-21T02:38:21;15.00;;;6.20;;
74908;SDS011;63468;52.058;4.824;2024-02-21T02:40:46;13.23;;;5.95;;
74908;SDS011;63468;52.058;4.824;2024-02-21T02:43:12;18.83;;;7.57;;
74908;SDS011;63468;52.058;4.824;2024-02-21T02:45:37;18.08;;;6.05;;
74908;SDS011;63468;52.058;4.824;2024-02-21T02:48:02;17.02;;;7.20;;
74908;SDS011;63468;52.058;4.824;2024-02-21T02:50:28;18.67;;;6.72;;
74908;SDS011;63468;52.058;4.824;2024-02-21T02:52:54;11.85;;;5.78;;
74908;SDS011;63468;52.058;4.824;2024-02-21T02:55:19;18.25;;;6.70;;
74908;SDS011;63468;52.058;4.824;2024-02-21T02:57:47;15.32;;;6.40;;
74908;SDS011;63468;52.058;4.824;2024-02-21T03:00:13;12.80;;;6.25;;
74908;SDS011;63468;52.058;4.824;2024-02-21T03:02:40;20.02;;;7.15;;
74908;SDS011;63468;52.058;4.824;2024-02-21T03:05:14;21.75;;;7.13;;
74908;SDS011;63468;52.058;4.824;2024-02-21T03:07:40;12.80;;;6.55;;
74908;SDS011;63468;52.058;4.824;2024-02-21T03:10:06;17.75;;;6.50;;
74908;SDS011;63468;52.058;4.824;2024-02-21T03:12:32;18.63;;;7.75;;
74908;SDS011;63468;52.058;4.824;2024-02-21T03:14:57;17.33;;;6.22;;
74908;SDS011;63468;52.058;4.824;2024-02-21T03:17:22;20.35;;;6.35;;
74908;SDS011;63468;52.058;4.824;2024-02-21T03:19:48;18.55;;;7.75;;
74908;SDS011;63468;52.058;4.824;2024-02-21T03:22:15;16.75;;;6.70;;
74908;SDS011;63468;52.058;4.824;2024-02-21T03:24:41;12.88;;;6.25;;
74908;SDS011;63468;52.058;4.824;2024-02-21T03:27:06;14.18;;;6.32;;
74908;SDS011;63468;52.058;4.824;2024-02-21T03:29:32;25.02;;;7.43;;
74908;SDS011;63468;52.058;4.824;2024-02-21T03:31:57;17.73;;;6.70;;
74908;SDS011;63468;52.058;4.824;2024-02-21T03:34:22;16.30;;;7.80;;
74908;SDS011;63468;52.058;4.824;2024-02-21T03:36:48;15.02;;;6.47;;
74908;SDS011;63468;52.058;4.824;2024-02-21T03:39:13;14.20;;;6.53;;
74908;SDS011;63468;52.058;4.824;2024-02-21T03:41:38;15.88;;;6.65;;
74908;SDS011;63468;52.058;4.824;2024-02-21T03:44:04;14.65;;;6.68;;
74908;SDS011;63468;52.058;4.824;2024-02-21T03:46:30;18.88;;;7.20;;
74908;SDS011;63468;52.058;4.824;2024-02-21T03:48:55;18.55;;;7.63;;
74908;SDS011;63468;52.058;4.824;2024-02-21T03:51:21;17.25;;;6.97;;
74908;SDS011;63468;52.058;4.824;2024-02-21T03:53:46;12.98;;;6.45;;
74908;SDS011;63468;52.058;4.824;2024-02-21T03:56:12;15.23;;;6.57;;
74908;SDS011;63468;52.058;4.824;2024-02-21T03:58:37;15.07;;;7.55;;
74908;SDS011;63468;52.058;4.824;2024-02-21T04:01:03;16.25;;;7.30;;
74908;SDS011;63468;52.058;4.824;2024-02-21T04:03:28;14.15;;;7.10;;
74908;SDS011;63468;52.058;4.824;2024-02-21T04:05:55;17.52;;;6.75;;
74908;SDS011;63468;52.058;4.824;2024-02-21T04:08:21;13.40;;;6.93;;
74908;SDS011;63468;52.058;4.824;2024-02-21T04:10:46;11.77;;;6.38;;
74908;SDS011;63468;52.058;4.824;2024-02-21T04:13:12;17.85;;;8.50;;
74908;SDS011;63468;52.058;4.824;2024-02-21T04:15:37;13.07;;;6.57;;
74908;SDS011;63468;52.058;4.824;2024-02-21T04:18:02;12.18;;;7.10;;
74908;SDS011;63468;52.058;4.824;2024-02-21T04:20:28;15.23;;;6.75;;
74908;SDS011;63468;52.058;4.824;2024-02-21T04:22:54;17.55;;;7.22;;
74908;SDS011;63468;52.058;4.824;2024-02-21T04:25:19;13.90;;;6.50;;
74908;SDS011;63468;52.058;4.824;2024-02-21T04:27:45;19.73;;;7.35;;
74908;SDS011;63468;52.058;4.824;2024-02-21T04:30:11;13.85;;;7.28;;
74908;SDS011;63468;52.058;4.824;2024-02-21T04:32:36;17.33;;;7.18;;
74908;SDS011;63468;52.058;4.824;2024-02-21T04:35:02;13.55;;;7.70;;
74908;SDS011;63468;52.058;4.824;2024-02-21T04:37:27;21.98;;;8.35;;
74908;SDS011;63468;52.058;4.824;2024-02-21T04:39:52;15.60;;;7.18;;
74908;SDS011;63468;52.058;4.824;2024-02-21T04:42:18;14.13;;;7.40;;
74908;SDS011;63468;52.058;4.824;2024-02-21T04:44:43;15.98;;;7.55;;
74908;SDS011;63468;52.058;4.824;2024-02-21T04:47:09;18.88;;;7.93;;
74908;SDS011;63468;52.058;4.824;2024-02-21T04:49:34;16.95;;;7.85;;
74908;SDS011;63468;52.058;4.824;2024-02-21T04:52:00;16.00;;;7.07;;
74908;SDS011;63468;52.058;4.824;2024-02-21T04:54:26;13.80;;;6.78;;
74908;SDS011;63468;52.058;4.824;2024-02-21T04:56:51;14.13;;;7.53;;
74908;SDS011;63468;52.058;4.824;2024-02-21T04:59:17;14.27;;;7.32;;
74908;SDS011;63468;52.058;4.824;2024-02-21T05:01:42;14.00;;;7.80;;
74908;SDS011;63468;52.058;4.824;2024-02-21T05:04:07;13.25;;;7.88;;
74908;SDS011;63468;52.058;4.824;2024-02-21T05:06:37;17.15;;;8.55;;
74908;SDS011;63468;52.058;4.824;2024-02-21T05:09:03;11.98;;;6.38;;
74908;SDS011;63468;52.058;4.824;2024-02-21T05:11:29;13.45;;;7.47;;
74908;SDS011;63468;52.058;4.824;2024-02-21T05:13:55;14.77;;;7.18;;
74908;SDS011;63468;52.058;4.824;2024-02-21T05:16:20;14.85;;;7.38;;
74908;SDS011;63468;52.058;4.824;2024-02-21T05:18:45;12.93;;;7.13;;
74908;SDS011;63468;52.058;4.824;2024-02-21T05:21:11;15.85;;;7.82;;
74908;SDS011;63468;52.058;4.824;2024-02-21T05:23:37;17.95;;;7.53;;
74908;SDS011;63468;52.058;4.824;2024-02-21T05:26:04;14.57;;;7.35;;
74908;SDS011;63468;52.058;4.824;2024-02-21T05:28:30;13.77;;;7.63;;
74908;SDS011;63468;52.058;4.824;2024-02-21T05:30:55;13.60;;;7.63;;
74908;SDS011;63468;52.058;4.824;2024-02-21T05:33:20;17.10;;;8.07;;
74908;SDS011;63468;52.058;4.824;2024-02-21T05:35:48;19.27;;;8.35;;
74908;SDS011;63468;52.058;4.824;2024-02-21T05:38:14;16.15;;;9.60;;
74908;SDS011;63468;52.058;4.824;2024-02-21T05:40:39;16.40;;;9.13;;
74908;SDS011;63468;52.058;4.824;2024-02-21T05:43:06;16.88;;;9.27;;
74908;SDS011;63468;52.058;4.824;2024-02-21T05:45:32;20.63;;;8.25;;
74908;SDS011;63468;52.058;4.824;2024-02-21T05:47:57;16.02;;;9.05;;
74908;SDS011;63468;52.058;4.824;2024-02-21T05:50:23;15.68;;;9.15;;
74908;SDS011;63468;52.058;4.824;2024-02-21T05:52:50;20.40;;;8.85;;
74908;SDS011;63468;52.058;4.824;2024-02-21T05:55:16;17.23;;;10.23;;
74908;SDS011;63468;52.058;4.824;2024-02-21T05:57:41;17.23;;;8.85;;
74908;SDS011;63468;52.058;4.824;2024-02-21T06:00:07;19.98;;;10.73;;
74908;SDS011;63468;52.058;4.824;2024-02-21T06:02:33;20.35;;;10.15;;
74908;SDS011;63468;52.058;4.824;2024-02-21T06:04:58;19.40;;;9.77;;
74908;SDS011;63468;52.058;4.824;2024-02-21T06:07:23;18.08;;;10.35;;
74908;SDS011;63468;52.058;4.824;2024-02-21T06:09:49;24.45;;;11.20;;
74908;SDS011;63468;52.058;4.824;2024-02-21T06:12:14;24.25;;;10.70;;
74908;SDS011;63468;52.058;4.824;2024-02-21T06:14:39;21.75;;;10.55;;
74908;SDS011;63468;52.058;4.824;2024-02-21T06:17:05;21.92;;;10.73;;
74908;SDS011;63468;52.058;4.824;2024-02-21T06:19:30;21.48;;;10.82;;
74908;SDS011;63468;52.058;4.824;2024-02-21T06:22:01;19.52;;;10.45;;
74908;SDS011;63468;52.058;4.824;2024-02-21T06:24:32;20.85;;;11.15;;
74908;SDS011;63468;52.058;4.824;2024-02-21T06:27:03;21.90;;;9.52;;
74908;SDS011;63468;52.058;4.824;2024-02-21T06:29:28;17.20;;;9.60;;
74908;SDS011;63468;52.058;4.824;2024-02-21T06:31:54;14.75;;;9.13;;
74908;SDS011;63468;52.058;4.824;2024-02-21T06:34:19;19.33;;;9.80;;
74908;SDS011;63468;52.058;4.824;2024-02-21T06:36:45;19.85;;;10.35;;
74908;SDS011;63468;52.058;4.824;2024-02-21T06:39:13;13.90;;;9.40;;
74908;SDS011;63468;52.058;4.824;2024-02-21T06:41:39;17.67;;;9.65;;
74908;SDS011;63468;52.058;4.824;2024-02-21T06:44:05;18.17;;;9.85;;
74908;SDS011;63468;52.058;4.824;2024-02-21T06:46:30;17.63;;;9.65;;
74908;SDS011;63468;52.058;4.824;2024-02-21T06:48:58;17.35;;;9.82;;
74908;SDS011;63468;52.058;4.824;2024-02-21T06:51:25;20.42;;;10.15;;
74908;SDS011;63468;52.058;4.824;2024-02-21T06:53:50;20.83;;;10.07;;
74908;SDS011;63468;52.058;4.824;2024-02-21T06:56:16;20.13;;;10.30;;
74908;SDS011;63468;52.058;4.824;2024-02-21T06:58:41;24.13;;;11.00;;
74908;SDS011;63468;52.058;4.824;2024-02-21T07:01:07;19.33;;;9.23;;
74908;SDS011;63468;52.058;4.824;2024-02-21T07:03:32;20.70;;;10.55;;
74908;SDS011;63468;52.058;4.824;2024-02-21T07:05:58;20.65;;;10.27;;
74908;SDS011;63468;52.058;4.824;2024-02-21T07:08:23;25.25;;;10.63;;
74908;SDS011;63468;52.058;4.824;2024-02-21T07:10:49;22.40;;;10.23;;
74908;SDS011;63468;52.058;4.824;2024-02-21T07:13:14;19.95;;;10.80;;
74908;SDS011;63468;52.058;4.824;2024-02-21T07:15:40;23.48;;;10.70;;
74908;SDS011;63468;52.058;4.824;2024-02-21T07:18:06;24.52;;;10.30;;
74908;SDS011;63468;52.058;4.824;2024-02-21T07:20:32;23.95;;;10.65;;
74908;SDS011;63468;52.058;4.824;2024-02-21T07:22:58;25.23;;;11.88;;
74908;SDS011;63468;52.058;4.824;2024-02-21T07:25:24;20.83;;;10.00;;
74908;SDS011;63468;52.058;4.824;2024-02-21T07:27:50;20.45;;;11.35;;
74908;SDS011;63468;52.058;4.824;2024-02-21T07:30:15;24.48;;;10.80;;
74908;SDS011;63468;52.058;4.824;2024-02-21T07:32:41;27.13;;;11.65;;
74908;SDS011;63468;52.058;4.824;2024-02-21T07:35:06;19.30;;;10.60;;
74908;SDS011;63468;52.058;4.824;2024-02-21T07:37:35;23.73;;;11.20;;
74908;SDS011;63468;52.058;4.824;2024-02-21T07:40:01;21.48;;;10.80;;
74908;SDS011;63468;52.058;4.824;2024-02-21T07:42:27;29.10;;;12.02;;
74908;SDS011;63468;52.058;4.824;2024-02-21T07:44:53;28.55;;;11.65;;
74908;SDS011;63468;52.058;4.824;2024-02-21T07:47:18;29.42;;;12.77;;
74908;SDS011;63468;52.058;4.824;2024-02-21T07:49:44;21.42;;;11.82;;
74908;SDS011;63468;52.058;4.824;2024-02-21T07:52:10;25.00;;;12.25;;
74908;SDS011;63468;52.058;4.824;2024-02-21T07:54:36;23.45;;;11.23;;
74908;SDS011;63468;52.058;4.824;2024-02-21T07:57:01;24.48;;;13.15;;
74908;SDS011;63468;52.058;4.824;2024-02-21T07:59:27;23.13;;;11.32;;
74908;SDS011;63468;52.058;4.824;2024-02-21T08:01:55;24.95;;;12.05;;
74908;SDS011;63468;52.058;4.824;2024-02-21T08:04:21;25.67;;;12.30;;
74908;SDS011;63468;52.058;4.824;2024-02-21T08:06:50;20.38;;;11.70;;
74908;SDS011;63468;52.058;4.824;2024-02-21T08:09:18;22.90;;;12.50;;
74908;SDS011;63468;52.058;4.824;2024-02-21T08:11:43;23.05;;;11.85;;
74908;SDS011;63468;52.058;4.824;2024-02-21T08:14:09;24.95;;;11.32;;
74908;SDS011;63468;52.058;4.824;2024-02-21T08:16:34;24.77;;;11.48;;
74908;SDS011;63468;52.058;4.824;2024-02-21T08:18:59;21.50;;;11.13;;
74908;SDS011;63468;52.058;4.824;2024-02-21T08:21:27;21.67;;;11.55;;
74908;SDS011;63468;52.058;4.824;2024-02-21T08:23:52;27.42;;;12.25;;
74908;SDS011;63468;52.058;4.824;2024-02-21T08:26:19;23.08;;;11.63;;
74908;SDS011;63468;52.058;4.824;2024-02-21T08:28:44;21.15;;;11.52;;
74908;SDS011;63468;52.058;4.824;2024-02-21T08:31:10;20.13;;;11.10;;
74908;SDS011;63468;52.058;4.824;2024-02-21T08:33:35;24.55;;;12.30;;
74908;SDS011;63468;52.058;4.824;2024-02-21T08:36:00;27.15;;;12.23;;
74908;SDS011;63468;52.058;4.824;2024-02-21T08:38:26;22.75;;;12.93;;
74908;SDS011;63468;52.058;4.824;2024-02-21T08:40:51;22.42;;;11.63;;
74908;SDS011;63468;52.058;4.824;2024-02-21T08:43:17;24.35;;;12.30;;
74908;SDS011;63468;52.058;4.824;2024-02-21T08:45:42;23.60;;;11.82;;
74908;SDS011;63468;52.058;4.824;2024-02-21T08:48:07;23.05;;;13.18;;
74908;SDS011;63468;52.058;4.824;2024-02-21T08:50:33;23.48;;;11.95;;
74908;SDS011;63468;52.058;4.824;2024-02-21T08:52:58;26.73;;;12.65;;
74908;SDS011;63468;52.058;4.824;2024-02-21T08:55:23;20.23;;;11.82;;
74908;SDS011;63468;52.058;4.824;2024-02-21T08:57:49;26.98;;;12.68;;
74908;SDS011;63468;52.058;4.824;2024-02-21T09:00:15;25.08;;;12.88;;
74908;SDS011;63468;52.058;4.824;2024-02-21T09:02:41;23.10;;;12.38;;
74908;SDS011;63468;52.058;4.824;2024-02-21T09:05:08;22.60;;;12.48;;
74908;SDS011;63468;52.058;4.824;2024-02-21T09:07:33;27.33;;;13.77;;
74908;SDS011;63468;52.058;4.824;2024-02-21T09:09:59;22.40;;;12.20;;
74908;SDS011;63468;52.058;4.824;2024-02-21T09:12:24;22.33;;;12.43;;
74908;SDS011;63468;52.058;4.824;2024-02-21T09:14:50;20.75;;;12.30;;
74908;SDS011;63468;52.058;4.824;2024-02-21T09:17:16;18.13;;;11.48;;
74908;SDS011;63468;52.058;4.824;2024-02-21T09:19:45;23.92;;;11.18;;
74908;SDS011;63468;52.058;4.824;2024-02-21T09:22:14;21.20;;;10.50;;
74908;SDS011;63468;52.058;4.824;2024-02-21T09:24:39;21.45;;;10.85;;
74908;SDS011;63468;52.058;4.824;2024-02-21T09:27:05;20.30;;;11.30;;
74908;SDS011;63468;52.058;4.824;2024-02-21T09:29:31;23.48;;;11.73;;
74908;SDS011;63468;52.058;4.824;2024-02-21T09:31:58;23.98;;;10.98;;
74908;SDS011;63468;52.058;4.824;2024-02-21T09:34:23;20.08;;;10.77;;
74908;SDS011;63468;52.058;4.824;2024-02-21T09:36:49;19.70;;;11.25;;
74908;SDS011;63468;52.058;4.824;2024-02-21T09:39:14;19.30;;;10.10;;
74908;SDS011;63468;52.058;4.824;2024-02-21T09:41:44;24.88;;;12.32;;
74908;SDS011;63468;52.058;4.824;2024-02-21T09:44:10;22.95;;;11.70;;
74908;SDS011;63468;52.058;4.824;2024-02-21T09:49:33;18.95;;;10.55;;
74908;SDS011;63468;52.058;4.824;2024-02-21T09:52:00;24.63;;;11.88;;
74908;SDS011;63468;52.058;4.824;2024-02-21T09:54:28;24.92;;;11.07;;
74908;SDS011;63468;52.058;4.824;2024-02-21T09:56:55;20.92;;;11.23;;
74908;SDS011;63468;52.058;4.824;2024-02-21T09:59:20;18.35;;;10.20;;
74908;SDS011;63468;52.058;4.824;2024-02-21T10:01:46;23.92;;;9.77;;
74908;SDS011;63468;52.058;4.824;2024-02-21T10:04:15;21.58;;;10.23;;
74908;SDS011;63468;52.058;4.824;2024-02-21T10:06:40;22.42;;;9.82;;
74908;SDS011;63468;52.058;4.824;2024-02-21T10:09:06;24.02;;;9.68;;
74908;SDS011;63468;52.058;4.824;2024-02-21T10:11:32;20.20;;;9.70;;
74908;SDS011;63468;52.058;4.824;2024-02-21T10:14:03;19.73;;;9.30;;
74908;SDS011;63468;52.058;4.824;2024-02-21T10:16:30;18.20;;;10.00;;
74908;SDS011;63468;52.058;4.824;2024-02-21T10:18:55;21.20;;;9.30;;
74908;SDS011;63468;52.058;4.824;2024-02-21T10:21:20;18.75;;;9.25;;
74908;SDS011;63468;52.058;4.824;2024-02-21T10:26:12;16.95;;;9.43;;
74908;SDS011;63468;52.058;4.824;2024-02-21T10:28:38;18.98;;;9.57;;
74908;SDS011;63468;52.058;4.824;2024-02-21T10:31:11;17.35;;;9.07;;
74908;SDS011;63468;52.058;4.824;2024-02-21T10:33:39;18.77;;;10.55;;
74908;SDS011;63468;52.058;4.824;2024-02-21T10:36:08;18.70;;;10.02;;
74908;SDS011;63468;52.058;4.824;2024-02-21T10:38:35;16.58;;;8.73;;
74908;SDS011;63468;52.058;4.824;2024-02-21T10:41:01;15.93;;;8.50;;
74908;SDS011;63468;52.058;4.824;2024-02-21T10:43:28;15.70;;;9.38;;
74908;SDS011;63468;52.058;4.824;2024-02-21T10:45:56;14.57;;;8.50;;
74908;SDS011;63468;52.058;4.824;2024-02-21T10:48:23;15.85;;;8.32;;
74908;SDS011;63468;52.058;4.824;2024-02-21T10:50:58;15.48;;;8.40;;
74908;SDS011;63468;52.058;4.824;2024-02-21T10:58:49;15.85;;;8.23;;
74908;SDS011;63468;52.058;4.824;2024-02-21T11:01:14;15.20;;;8.68;;
74908;SDS011;63468;52.058;4.824;2024-02-21T11:03:43;15.30;;;9.70;;
74908;SDS011;63468;52.058;4.824;2024-02-21T11:06:10;14.90;;;8.18;;
74908;SDS011;63468;52.058;4.824;2024-02-21T11:08:36;16.80;;;9.90;;
74908;SDS011;63468;52.058;4.824;2024-02-21T11:11:02;16.65;;;9.18;;
74908;SDS011;63468;52.058;4.824;2024-02-21T11:13:31;17.88;;;10.43;;
74908;SDS011;63468;52.058;4.824;2024-02-21T11:16:12;20.38;;;9.82;;
74908;SDS011;63468;52.058;4.824;2024-02-21T11:18:47;20.00;;;11.00;;
74908;SDS011;63468;52.058;4.824;2024-02-21T11:21:12;19.02;;;10.73;;
74908;SDS011;63468;52.058;4.824;2024-02-21T11:23:37;21.42;;;12.15;;
74908;SDS011;63468;52.058;4.824;2024-02-21T11:26:03;17.80;;;11.00;;
74908;SDS011;63468;52.058;4.824;2024-02-21T11:28:44;18.45;;;12.38;;
74908;SDS011;63468;52.058;4.824;2024-02-21T11:31:13;17.42;;;10.95;;
74908;SDS011;63468;52.058;4.824;2024-02-21T11:33:39;16.63;;;10.70;;
74908;SDS011;63468;52.058;4.824;2024-02-21T11:36:11;18.02;;;10.82;;
74908;SDS011;63468;52.058;4.824;2024-02-21T11:38:49;19.58;;;10.82;;
74908;SDS011;63468;52.058;4.824;2024-02-21T11:41:15;16.98;;;11.63;;
74908;SDS011;63468;52.058;4.824;2024-02-21T11:43:40;17.77;;;11.95;;
74908;SDS011;63468;52.058;4.824;2024-02-21T11:46:06;17.58;;;10.48;;
74908;SDS011;63468;52.058;4.824;2024-02-21T11:48:32;17.05;;;10.85;;
74908;SDS011;63468;52.058;4.824;2024-02-21T11:50:57;17.10;;;10.70;;
74908;SDS011;63468;52.058;4.824;2024-02-21T11:53:22;13.95;;;9.43;;
74908;SDS011;63468;52.058;4.824;2024-02-21T11:55:48;15.05;;;10.10;;
74908;SDS011;63468;52.058;4.824;2024-02-21T11:58:14;20.63;;;9.93;;
74908;SDS011;63468;52.058;4.824;2024-02-21T12:00:40;16.00;;;9.40;;
74908;SDS011;63468;52.058;4.824;2024-02-21T12:03:06;15.48;;;10.30;;
74908;SDS011;63468;52.058;4.824;2024-02-21T12:05:31;17.25;;;10.13;;
74908;SDS011;63468;52.058;4.824;2024-02-21T12:07:57;18.85;;;10.82;;
74908;SDS011;63468;52.058;4.824;2024-02-21T12:10:23;18.58;;;10.13;;
74908;SDS011;63468;52.058;4.824;2024-02-21T12:12:49;18.13;;;10.27;;
74908;SDS011;63468;52.058;4.824;2024-02-21T12:15:17;14.73;;;9.80;;
74908;SDS011;63468;52.058;4.824;2024-02-21T12:17:43;17.02;;;10.07;;
74908;SDS011;63468;52.058;4.824;2024-02-21T12:20:08;15.07;;;9.57;;
74908;SDS011;63468;52.058;4.824;2024-02-21T12:22:37;14.30;;;9.48;;
74908;SDS011;63468;52.058;4.824;2024-02-21T12:25:36;14.18;;;9.88;;
74908;SDS011;63468;52.058;4.824;2024-02-21T12:27:55;16.17;;;9.55;;
74908;SDS011;63468;52.058;4.824;2024-02-21T12:30:21;13.43;;;7.68;;
74908;SDS011;63468;52.058;4.824;2024-02-21T12:32:46;13.65;;;8.43;;
74908;SDS011;63468;52.058;4.824;2024-02-21T12:35:13;17.55;;;8.60;;
74908;SDS011;63468;52.058;4.824;2024-02-21T12:37:38;12.35;;;7.90;;
74908;SDS011;63468;52.058;4.824;2024-02-21T12:40:08;11.95;;;7.20;;
74908;SDS011;63468;52.058;4.824;2024-02-21T12:42:35;11.82;;;7.93;;
74908;SDS011;63468;52.058;4.824;2024-02-21T12:45:01;13.48;;;7.50;;
74908;SDS011;63468;52.058;4.824;2024-02-21T12:47:29;12.82;;;7.40;;
74908;SDS011;63468;52.058;4.824;2024-02-21T12:49:54;12.32;;;7.60;;
74908;SDS011;63468;52.058;4.824;2024-02-21T12:52:19;14.48;;;8.05;;
74908;SDS011;63468;52.058;4.824;2024-02-21T12:54:45;12.73;;;6.90;;
74908;SDS011;63468;52.058;4.824;2024-02-21T12:57:10;16.13;;;8.60;;
74908;SDS011;63468;52.058;4.824;2024-02-21T12:59:36;14.57;;;7.78;;
74908;SDS011;63468;52.058;4.824;2024-02-21T13:02:01;14.50;;;7.45;;
74908;SDS011;63468;52.058;4.824;2024-02-21T13:04:27;11.70;;;7.60;;
74908;SDS011;63468;52.058;4.824;2024-02-21T13:06:52;17.88;;;8.82;;
74908;SDS011;63468;52.058;4.824;2024-02-21T13:09:18;12.80;;;8.13;;
74908;SDS011;63468;52.058;4.824;2024-02-21T13:11:43;15.10;;;7.32;;
74908;SDS011;63468;52.058;4.824;2024-02-21T13:14:12;13.95;;;8.20;;
74908;SDS011;63468;52.058;4.824;2024-02-21T13:16:37;15.15;;;8.05;;
74908;SDS011;63468;52.058;4.824;2024-02-21T13:19:06;13.70;;;8.45;;
74908;SDS011;63468;52.058;4.824;2024-02-21T13:21:33;13.93;;;8.13;;
74908;SDS011;63468;52.058;4.824;2024-02-21T13:23:59;12.23;;;7.57;;
74908;SDS011;63468;52.058;4.824;2024-02-21T13:26:24;9.95;;;6.18;;
74908;SDS011;63468;52.058;4.824;2024-02-21T13:28:49;11.65;;;6.53;;
74908;SDS011;63468;52.058;4.824;2024-02-21T13:31:15;13.38;;;6.80;;
74908;SDS011;63468;52.058;4.824;2024-02-21T13:33:41;12.93;;;7.25;;
74908;SDS011;63468;52.058;4.824;2024-02-21T13:36:07;10.80;;;6.55;;
74908;SDS011;63468;52.058;4.824;2024-02-21T13:38:33;10.98;;;6.25;;
74908;SDS011;63468;52.058;4.824;2024-02-21T13:40:58;11.05;;;6.70;;
74908;SDS011;63468;52.058;4.824;2024-02-21T13:43:25;11.38;;;7.25;;
74908;SDS011;63468;52.058;4.824;2024-02-21T13:45:55;11.48;;;7.25;;
74908;SDS011;63468;52.058;4.824;2024-02-21T13:48:22;10.32;;;5.63;;
74908;SDS011;63468;52.058;4.824;2024-02-21T13:50:48;11.90;;;6.80;;
74908;SDS011;63468;52.058;4.824;2024-02-21T13:53:13;12.35;;;6.72;;
74908;SDS011;63468;52.058;4.824;2024-02-21T13:55:38;14.68;;;7.43;;
74908;SDS011;63468;52.058;4.824;2024-02-21T13:58:05;12.38;;;6.75;;
74908;SDS011;63468;52.058;4.824;2024-02-21T14:00:31;11.60;;;6.35;;
74908;SDS011;63468;52.058;4.824;2024-02-21T14:02:59;15.23;;;7.05;;
74908;SDS011;63468;52.058;4.824;2024-02-21T14:05:25;14.25;;;6.88;;
74908;SDS011;63468;52.058;4.824;2024-02-21T14:07:51;12.10;;;7.43;;
74908;SDS011;63468;52.058;4.824;2024-02-21T14:10:19;12.10;;;6.38;;
74908;SDS011;63468;52.058;4.824;2024-02-21T14:12:45;15.73;;;6.88;;
74908;SDS011;63468;52.058;4.824;2024-02-21T14:15:10;13.57;;;7.43;;
74908;SDS011;63468;52.058;4.824;2024-02-21T14:17:35;12.27;;;7.28;;
74908;SDS011;63468;52.058;4.824;2024-02-21T14:20:01;13.32;;;7.13;;
74908;SDS011;63468;52.058;4.824;2024-02-21T14:22:28;15.13;;;7.63;;
74908;SDS011;63468;52.058;4.824;2024-02-21T14:24:54;11.10;;;7.47;;
74908;SDS011;63468;52.058;4.824;2024-02-21T14:27:21;12.13;;;8.30;;
74908;SDS011;63468;52.058;4.824;2024-02-21T14:29:46;15.25;;;8.05;;
74908;SDS011;63468;52.058;4.824;2024-02-21T14:32:12;15.38;;;8.27;;
74908;SDS011;63468;52.058;4.824;2024-02-21T14:34:38;13.85;;;8.82;;